createdAt,value
2023-02-17T00:03:34.686Z,6.52
2023-02-17T00:09:00.798Z,6.55
2023-02-17T00:14:28.691Z,6.60
2023-02-17T00:19:53.593Z,6.67
2023-02-17T00:25:18.972Z,6.75
2023-02-17T00:30:46.613Z,6.81
2023-02-17T00:36:10.665Z,6.86
2023-02-17T00:41:36.621Z,6.92
2023-02-17T00:47:03.611Z,6.96
2023-02-17T00:52:28.814Z,6.99
2023-02-17T00:57:52.641Z,7.02
2023-02-17T01:03:20.628Z,7.05
2023-02-17T01:08:46.663Z,7.07
2023-02-17T01:14:14.612Z,7.14
2023-02-17T01:19:42.818Z,7.15
2023-02-17T01:25:07.637Z,7.14
2023-02-17T01:30:33.653Z,7.15
2023-02-17T01:36:01.643Z,7.14
2023-02-17T01:41:28.702Z,7.12
2023-02-17T01:46:55.736Z,7.14
2023-02-17T01:52:30.644Z,7.16
2023-02-17T01:57:58.662Z,7.21
2023-02-17T02:03:32.057Z,7.25
2023-02-17T02:09:05.708Z,7.32
2023-02-17T02:14:30.685Z,7.38
2023-02-17T02:20:27.709Z,7.42
2023-02-17T02:26:31.750Z,7.43
2023-02-17T02:32:11.881Z,7.41
2023-02-17T02:37:43.092Z,7.42
2023-02-17T02:43:10.713Z,7.38
2023-02-17T02:48:35.670Z,7.33
2023-02-17T02:54:27.672Z,7.42
2023-02-17T03:00:03.784Z,7.46
2023-02-17T03:05:45.955Z,7.49
2023-02-17T03:11:14.055Z,7.49
2023-02-17T03:16:38.799Z,7.64
2023-02-17T03:22:08.678Z,7.67
2023-02-17T03:27:35.695Z,7.69
2023-02-17T03:33:01.706Z,7.65
2023-02-17T03:38:26.961Z,7.62
2023-02-17T03:43:55.098Z,7.62
2023-02-17T03:49:18.690Z,7.59
2023-02-17T03:54:43.719Z,7.58
2023-02-17T04:00:10.718Z,7.55
2023-02-17T04:05:42.760Z,7.55
2023-02-17T04:11:09.751Z,7.51
2023-02-17T04:16:37.965Z,7.51
2023-02-17T04:22:02.728Z,7.51
2023-02-17T04:27:28.205Z,7.51
2023-02-17T04:32:55.729Z,7.49
2023-02-17T04:38:20.744Z,7.47
2023-02-17T04:43:45.959Z,7.50
2023-02-17T04:49:12.705Z,7.49
2023-02-17T04:54:38.940Z,7.51
2023-02-17T05:00:02.746Z,7.50
2023-02-17T05:05:30.736Z,7.49
2023-02-17T05:10:55.727Z,7.45
2023-02-17T05:16:20.824Z,7.48
2023-02-17T05:21:47.777Z,7.47
2023-02-17T05:27:12.752Z,7.51
2023-02-17T05:32:37.761Z,7.49
2023-02-17T05:38:05.749Z,7.53
2023-02-17T05:43:29.831Z,7.52
2023-02-17T05:48:55.785Z,7.52
2023-02-17T05:54:22.749Z,7.53
2023-02-17T05:59:47.883Z,7.54
2023-02-17T06:05:18.756Z,7.54
2023-02-17T06:10:46.809Z,7.55
2023-02-17T06:16:10.900Z,7.52
2023-02-17T06:21:35.802Z,7.53
2023-02-17T06:27:02.764Z,7.52
2023-02-17T06:32:27.788Z,7.51
2023-02-17T06:37:51.796Z,7.52
2023-02-17T06:43:19.770Z,7.52
2023-02-17T06:48:43.785Z,7.51
2023-02-17T06:54:08.795Z,7.52
2023-02-17T06:59:35.788Z,7.54
2023-02-17T07:05:07.788Z,7.57
2023-02-17T07:10:32.788Z,7.60
2023-02-17T07:15:59.904Z,7.61
2023-02-17T07:21:25.141Z,7.64
2023-02-17T07:26:51.899Z,7.67
2023-02-17T07:32:19.830Z,7.69
2023-02-17T07:37:43.850Z,7.73
2023-02-17T07:43:08.806Z,7.78
2023-02-17T07:48:35.822Z,7.92
2023-02-17T07:54:01.912Z,8.05
2023-02-17T07:59:26.812Z,8.20
2023-02-17T08:05:00.881Z,8.32
2023-02-17T08:10:38.803Z,8.49
2023-02-17T08:16:02.820Z,8.66
2023-02-17T08:21:30.848Z,8.73
2023-02-17T08:26:56.870Z,8.80
2023-02-17T08:32:23.851Z,8.87
2023-02-17T08:37:50.864Z,8.97
2023-02-17T08:43:16.858Z,9.05
2023-02-17T08:48:40.873Z,9.13
2023-02-17T08:54:09.866Z,9.21
2023-02-17T08:59:35.147Z,9.31
2023-02-17T09:05:05.891Z,9.41
2023-02-17T09:10:33.865Z,9.48
2023-02-17T09:16:00.977Z,9.58
2023-02-17T09:21:26.865Z,9.68
2023-02-17T09:26:53.885Z,9.76
2023-02-17T09:32:19.068Z,9.81
2023-02-17T09:37:42.931Z,9.84
2023-02-17T09:43:11.907Z,9.83
2023-02-17T09:48:40.912Z,9.89
2023-02-17T09:54:13.921Z,9.93
2023-02-17T09:59:47.942Z,10.00
2023-02-17T10:05:23.969Z,10.14
2023-02-17T10:11:00.885Z,10.26
2023-02-17T10:16:33.963Z,10.26
2023-02-17T10:22:04.902Z,10.31
2023-02-17T10:27:50.880Z,10.25
2023-02-17T10:33:29.925Z,10.27
2023-02-17T10:39:00.899Z,10.33
2023-02-17T10:44:29.902Z,10.33
2023-02-17T10:50:00.918Z,10.34
2023-02-17T10:55:35.921Z,10.39
2023-02-17T11:01:05.027Z,10.44
2023-02-17T11:06:36.921Z,10.46
2023-02-17T11:12:09.018Z,10.54
2023-02-17T11:17:39.905Z,10.60
2023-02-17T11:23:15.016Z,10.62
2023-02-17T11:28:39.934Z,10.64
2023-02-17T11:34:03.928Z,10.64
2023-02-17T11:39:31.930Z,10.68
2023-02-17T11:44:56.944Z,10.79
2023-02-17T11:50:41.598Z,10.87
2023-02-17T11:56:17.927Z,10.96
2023-02-17T12:01:57.967Z,11.08
2023-02-17T12:08:03.982Z,11.18
2023-02-17T12:13:40.954Z,11.26
2023-02-17T12:19:15.969Z,11.33
2023-02-17T12:24:58.973Z,11.37
2023-02-17T12:30:39.117Z,11.37
2023-02-17T12:36:07.230Z,11.36
2023-02-17T12:41:34.952Z,11.33
2023-02-17T12:47:07.010Z,11.30
2023-02-17T12:52:34.970Z,11.31
2023-02-17T12:58:04.948Z,11.35
2023-02-17T13:03:38.991Z,11.44
2023-02-17T13:09:07.971Z,11.52
2023-02-17T13:14:42.051Z,11.61
2023-02-17T13:20:34.066Z,11.67
2023-02-17T13:25:58.999Z,11.80
2023-02-17T13:31:28.134Z,11.92
2023-02-17T13:36:54.986Z,12.07
2023-02-17T13:42:46.029Z,12.20
2023-02-17T13:48:12.034Z,12.23
2023-02-17T13:53:42.100Z,12.26
2023-02-17T13:59:06.011Z,12.36
2023-02-17T14:04:40.156Z,12.40
2023-02-17T14:10:08.013Z,12.41
2023-02-17T14:15:34.158Z,12.46
2023-02-17T14:21:10.033Z,12.42
2023-02-17T14:26:54.026Z,12.44
2023-02-17T14:32:41.012Z,12.45
2023-02-17T14:38:05.036Z,12.50
2023-02-17T14:43:33.115Z,12.56
2023-02-17T14:48:57.036Z,12.64
2023-02-17T14:54:26.822Z,12.60
2023-02-17T14:59:55.034Z,12.59
2023-02-17T15:05:26.065Z,12.55
2023-02-17T15:10:52.069Z,12.54
2023-02-17T15:16:20.118Z,12.48
2023-02-17T15:21:47.068Z,12.44
2023-02-17T15:27:12.113Z,12.48
2023-02-17T15:32:40.048Z,12.44
2023-02-17T15:38:06.063Z,12.44
2023-02-17T15:43:32.054Z,12.39
2023-02-17T15:49:00.125Z,12.38
2023-02-17T15:54:26.193Z,12.40
2023-02-17T15:59:52.154Z,12.46
2023-02-17T16:05:27.127Z,12.42
2023-02-17T16:10:53.154Z,12.38
2023-02-17T16:16:18.098Z,12.40
2023-02-17T16:21:46.076Z,12.40
2023-02-17T16:27:10.125Z,12.31
2023-02-17T16:32:35.203Z,12.36
2023-02-17T16:38:08.205Z,12.36
2023-02-17T16:43:37.171Z,12.43
2023-02-17T16:49:05.837Z,12.47
2023-02-17T16:54:35.748Z,12.40
2023-02-17T17:00:02.209Z,12.44
2023-02-17T17:05:35.098Z,12.47
2023-02-17T17:11:03.151Z,12.44
2023-02-17T17:16:29.152Z,12.55
2023-02-17T17:21:55.121Z,12.47
2023-02-17T17:27:22.107Z,12.42
2023-02-17T17:32:48.110Z,12.30
2023-02-17T17:38:12.193Z,12.30
2023-02-17T17:43:49.108Z,12.05
2023-02-17T17:49:17.271Z,11.79
2023-02-17T17:54:42.321Z,11.67
2023-02-17T18:00:09.154Z,11.45
2023-02-17T18:05:40.142Z,11.24
2023-02-17T18:11:05.141Z,11.05
2023-02-17T18:16:35.358Z,10.97
2023-02-17T18:22:00.183Z,10.81
2023-02-17T18:27:24.170Z,10.81
2023-02-17T18:32:52.179Z,10.74
2023-02-17T18:38:16.155Z,10.71
2023-02-17T18:43:42.200Z,10.75
2023-02-17T18:49:11.551Z,10.75
2023-02-17T18:54:37.313Z,10.74
2023-02-17T19:00:03.366Z,10.63
2023-02-17T19:05:38.332Z,10.36
2023-02-17T19:11:03.318Z,10.00
2023-02-17T19:16:31.308Z,9.81
2023-02-17T19:22:00.346Z,9.74
2023-02-17T19:27:26.239Z,9.75
2023-02-17T19:32:51.173Z,9.65
2023-02-17T19:38:18.177Z,9.66
2023-02-17T19:43:43.223Z,9.68
2023-02-17T19:49:07.212Z,9.68
2023-02-17T19:54:35.305Z,9.77
2023-02-17T20:00:00.183Z,9.82
2023-02-17T20:05:31.212Z,9.78
2023-02-17T20:10:59.190Z,9.82
2023-02-17T20:16:26.346Z,9.91
2023-02-17T20:21:51.229Z,9.99
2023-02-17T20:27:18.223Z,10.05
2023-02-17T20:32:43.228Z,10.02
2023-02-17T20:38:07.237Z,10.08
2023-02-17T20:43:35.203Z,10.29
2023-02-17T20:48:59.247Z,10.27
2023-02-17T20:54:24.284Z,10.27
2023-02-17T20:59:52.258Z,10.16
2023-02-17T21:05:17.248Z,10.19
2023-02-17T21:10:46.547Z,10.24
2023-02-17T21:16:14.318Z,10.29
2023-02-17T21:21:40.295Z,10.28
2023-02-17T21:27:05.239Z,10.22
2023-02-17T21:32:33.486Z,10.25
2023-02-17T21:37:58.265Z,10.20
2023-02-17T21:43:35.263Z,10.27
2023-02-17T21:49:03.255Z,10.28
2023-02-17T21:54:28.265Z,10.43
2023-02-17T21:59:53.283Z,10.39
2023-02-17T22:05:21.288Z,10.45
2023-02-17T22:10:46.244Z,10.47
2023-02-17T22:16:14.336Z,10.41
2023-02-17T22:21:42.277Z,10.39
2023-02-17T22:27:06.285Z,10.42
2023-02-17T22:32:31.369Z,10.36
2023-02-17T22:37:58.281Z,10.46
2023-02-17T22:43:23.252Z,10.46
2023-02-17T22:48:49.289Z,10.58
2023-02-17T22:54:17.300Z,10.54
2023-02-17T22:59:42.296Z,10.56
2023-02-17T23:05:07.323Z,10.50
2023-02-17T23:10:35.299Z,10.42
2023-02-17T23:16:00.316Z,10.25
2023-02-17T23:21:26.283Z,10.10
2023-02-17T23:26:54.306Z,9.78
2023-02-17T23:32:18.328Z,9.31
2023-02-17T23:37:43.310Z,9.09
2023-02-17T23:43:12.345Z,8.83
2023-02-17T23:48:37.304Z,8.73
2023-02-17T23:54:01.416Z,8.62
2023-02-17T23:59:29.314Z,8.53
